Time;durP1;ratioP1;P1;durP2;ratioP2;P2;SDS_P1;SDS_P2;PMS_P1;PMS_P2;Temp;Humidity;BMP_temperature;BMP_pressure;BME280_temperature;BME280_humidity;BME280_pressure;Samples;Min_cycle;Max_cycle;Signal;HPM_P1;HPM_P2
2023/11/22 00:02:19;;;;;;;27.38;9.30;;;;;;;;;;5083938;28;20212;-53
2023/11/22 00:04:45;;;;;;;21.98;9.55;;;;;;;;;;5084650;28;20024;-52
2023/11/22 00:07:15;;;;;;;18.92;9.00;;;;;;;;;;5084721;28;20017;-52
2023/11/22 00:09:42;;;;;;;20.70;10.15;;;;;;;;;;5084840;28;20028;-53
2023/11/22 00:12:08;;;;;;;19.60;9.10;;;;;;;;;;5084494;28;20450;-49
2023/11/22 00:14:36;;;;;;;17.23;9.40;;;;;;;;;;5084815;28;20024;-51
2023/11/22 00:17:02;;;;;;;14.80;8.90;;;;;;;;;;5084349;28;20035;-52
2023/11/22 00:19:30;;;;;;;19.17;9.20;;;;;;;;;;5084357;28;20036;-49
2023/11/22 00:21:57;;;;;;;16.67;9.18;;;;;;;;;;5084535;28;20214;-49
2023/11/22 00:24:23;;;;;;;19.35;9.50;;;;;;;;;;5084567;28;20103;-51
2023/11/22 00:26:50;;;;;;;16.23;9.05;;;;;;;;;;5084229;28;20031;-53
2023/11/22 00:29:17;;;;;;;18.52;9.32;;;;;;;;;;5084147;28;20024;-52
2023/11/22 00:31:44;;;;;;;21.98;10.45;;;;;;;;;;5084232;28;20056;-55
2023/11/22 00:34:11;;;;;;;17.85;9.45;;;;;;;;;;5084081;28;20034;-53
2023/11/22 00:36:39;;;;;;;20.77;9.85;;;;;;;;;;5084242;28;20228;-52
2023/11/22 00:39:05;;;;;;;18.55;9.27;;;;;;;;;;5084133;28;20300;-53
2023/11/22 00:41:32;;;;;;;15.77;9.48;;;;;;;;;;5083911;28;20028;-53
2023/11/22 00:43:59;;;;;;;17.45;9.50;;;;;;;;;;5084106;28;20056;-55
2023/11/22 00:46:26;;;;;;;24.60;10.70;;;;;;;;;;5083907;28;20224;-54
2023/11/22 00:48:52;;;;;;;15.35;8.90;;;;;;;;;;5083803;28;20025;-53
2023/11/22 00:51:22;;;;;;;19.25;9.50;;;;;;;;;;5084196;28;20044;-52
2023/11/22 00:53:49;;;;;;;16.48;9.57;;;;;;;;;;5083927;28;20032;-50
2023/11/22 00:56:16;;;;;;;23.17;11.95;;;;;;;;;;5083877;28;20076;-52
2023/11/22 00:58:43;;;;;;;23.10;12.65;;;;;;;;;;5083974;28;20017;-56
2023/11/22 01:01:09;;;;;;;22.45;12.43;;;;;;;;;;5083833;28;20103;-55
2023/11/22 01:03:36;;;;;;;20.45;11.95;;;;;;;;;;5083767;28;20024;-51
2023/11/22 01:06:03;;;;;;;16.17;11.00;;;;;;;;;;5083930;28;20020;-53
2023/11/22 01:08:30;;;;;;;23.35;10.02;;;;;;;;;;5083590;28;20043;-53
2023/11/22 01:10:57;;;;;;;21.52;10.68;;;;;;;;;;5083909;28;20021;-53
2023/11/22 01:13:25;;;;;;;16.65;9.57;;;;;;;;;;5087045;28;20020;-50
2023/11/22 01:15:51;;;;;;;21.63;9.68;;;;;;;;;;5087954;28;20071;-54
2023/11/22 01:18:18;;;;;;;16.13;9.52;;;;;;;;;;5087794;28;20020;-53
2023/11/22 01:20:45;;;;;;;16.25;8.68;;;;;;;;;;5088059;28;20239;-49
2023/11/22 01:23:12;;;;;;;20.48;9.77;;;;;;;;;;5087742;28;20074;-48
2023/11/22 01:25:38;;;;;;;15.48;8.65;;;;;;;;;;5087978;28;20213;-48
2023/11/22 01:28:06;;;;;;;16.77;8.75;;;;;;;;;;5088145;28;20027;-51
2023/11/22 01:30:33;;;;;;;15.40;8.52;;;;;;;;;;5088192;28;20040;-53
2023/11/22 01:33:00;;;;;;;15.98;8.50;;;;;;;;;;5087928;28;20016;-56
2023/11/22 01:35:28;;;;;;;17.55;8.65;;;;;;;;;;5088142;28;20020;-56
2023/11/22 01:37:56;;;;;;;15.32;8.40;;;;;;;;;;5087492;28;20020;-55
2023/11/22 01:40:22;;;;;;;19.73;8.93;;;;;;;;;;5087490;28;20036;-54
2023/11/22 01:42:50;;;;;;;22.40;8.80;;;;;;;;;;5087480;28;20031;-52
2023/11/22 01:45:18;;;;;;;22.83;8.85;;;;;;;;;;5087570;28;20045;-53
2023/11/22 01:47:45;;;;;;;20.45;9.20;;;;;;;;;;5087621;28;20028;-53
2023/11/22 01:50:15;;;;;;;18.35;8.23;;;;;;;;;;5087839;28;20029;-52
2023/11/22 01:52:42;;;;;;;13.60;8.20;;;;;;;;;;5086979;28;20029;-49
2023/11/22 01:55:09;;;;;;;21.02;8.48;;;;;;;;;;5087171;28;20095;-52
2023/11/22 01:57:38;;;;;;;33.08;10.23;;;;;;;;;;5087876;28;20036;-47
2023/11/22 02:00:07;;;;;;;24.33;9.07;;;;;;;;;;5102607;28;20099;-49
2023/11/22 02:02:37;;;;;;;22.35;9.05;;;;;;;;;;5099382;28;20020;-48
2023/11/22 02:05:04;;;;;;;20.77;8.90;;;;;;;;;;5095424;28;20308;-46
2023/11/22 02:07:31;;;;;;;20.63;8.48;;;;;;;;;;5087591;28;20044;-47
2023/11/22 02:09:58;;;;;;;18.77;8.85;;;;;;;;;;5106965;28;20020;-46
2023/11/22 02:12:25;;;;;;;21.48;9.15;;;;;;;;;;5106816;28;20012;-48
2023/11/22 02:14:52;;;;;;;21.83;9.95;;;;;;;;;;5105964;28;20028;-52
2023/11/22 02:17:18;;;;;;;17.70;9.07;;;;;;;;;;5097184;28;20228;-50
2023/11/22 02:19:47;;;;;;;18.48;9.65;;;;;;;;;;5086767;28;20028;-49
2023/11/22 02:22:13;;;;;;;22.38;9.27;;;;;;;;;;5086261;28;20036;-48
2023/11/22 02:24:42;;;;;;;19.40;8.75;;;;;;;;;;5085636;28;20025;-53
2023/11/22 02:27:11;;;;;;;19.60;9.52;;;;;;;;;;5086398;28;20017;-49
2023/11/22 02:29:37;;;;;;;18.48;9.23;;;;;;;;;;5086273;28;20032;-51
2023/11/22 02:32:04;;;;;;;19.55;9.13;;;;;;;;;;5085805;28;20013;-47
2023/11/22 02:34:31;;;;;;;17.15;8.45;;;;;;;;;;5086464;28;20012;-51
2023/11/22 02:36:57;;;;;;;14.00;8.45;;;;;;;;;;5086081;28;20083;-51
2023/11/22 02:39:29;;;;;;;17.23;8.55;;;;;;;;;;5086030;28;20055;-51
2023/11/22 02:41:58;;;;;;;21.60;9.13;;;;;;;;;;5086215;28;20025;-50
2023/11/22 02:44:25;;;;;;;15.90;8.43;;;;;;;;;;5085935;28;20224;-50
2023/11/22 02:46:52;;;;;;;16.27;8.30;;;;;;;;;;5085678;28;20090;-49
2023/11/22 02:49:19;;;;;;;16.35;8.77;;;;;;;;;;5086563;28;20039;-51
2023/11/22 02:51:46;;;;;;;16.73;8.88;;;;;;;;;;5096087;28;20028;-47
2023/11/22 02:54:12;;;;;;;16.92;8.85;;;;;;;;;;5105933;28;20028;-45
2023/11/22 02:56:41;;;;;;;13.68;8.07;;;;;;;;;;5106092;28;20023;-46
2023/11/22 02:59:13;;;;;;;14.55;8.18;;;;;;;;;;5106151;28;20039;-51
2023/11/22 03:01:44;;;;;;;15.07;8.47;;;;;;;;;;5105755;28;20020;-48
2023/11/22 03:04:13;;;;;;;13.18;8.55;;;;;;;;;;5105974;28;20305;-52
2023/11/22 03:06:40;;;;;;;14.70;9.10;;;;;;;;;;5105683;28;20047;-48
2023/11/22 03:09:08;;;;;;;15.38;9.07;;;;;;;;;;5105033;28;20016;-49
2023/11/22 03:11:35;;;;;;;16.45;9.35;;;;;;;;;;5105691;28;20019;-55
2023/11/22 03:14:03;;;;;;;19.95;9.25;;;;;;;;;;5105583;28;20032;-50
2023/11/22 03:16:30;;;;;;;16.10;8.82;;;;;;;;;;5105616;28;20200;-50
2023/11/22 03:18:58;;;;;;;17.90;9.07;;;;;;;;;;5104129;28;20296;-53
2023/11/22 03:21:28;;;;;;;14.15;8.50;;;;;;;;;;5103698;28;20032;-55
2023/11/22 03:23:55;;;;;;;15.10;8.35;;;;;;;;;;5103999;28;20024;-52
2023/11/22 03:26:21;;;;;;;15.77;8.75;;;;;;;;;;5104639;28;20024;-50
2023/11/22 03:28:48;;;;;;;16.73;8.40;;;;;;;;;;5104341;28;20124;-49
2023/11/22 03:31:15;;;;;;;14.98;8.48;;;;;;;;;;5104413;28;20035;-53
2023/11/22 03:33:42;;;;;;;14.48;9.23;;;;;;;;;;5104946;28;20246;-51
2023/11/22 03:36:11;;;;;;;15.93;8.75;;;;;;;;;;5104155;28;20028;-49
2023/11/22 03:38:37;;;;;;;18.00;9.07;;;;;;;;;;5105130;28;20028;-52
2023/11/22 03:41:05;;;;;;;16.52;8.45;;;;;;;;;;5105346;28;20020;-53
2023/11/22 03:43:31;;;;;;;19.23;9.40;;;;;;;;;;5104688;28;20043;-51
2023/11/22 03:45:58;;;;;;;18.02;8.65;;;;;;;;;;5105190;28;20035;-56
2023/11/22 03:48:26;;;;;;;16.83;8.18;;;;;;;;;;5105150;28;20023;-54
2023/11/22 03:50:52;;;;;;;15.73;8.73;;;;;;;;;;5104947;28;20028;-53
2023/11/22 03:53:21;;;;;;;17.30;8.05;;;;;;;;;;5105609;28;20016;-51
2023/11/22 03:55:48;;;;;;;15.30;8.25;;;;;;;;;;5105409;28;20024;-47
2023/11/22 03:58:15;;;;;;;15.48;8.10;;;;;;;;;;5104720;28;20046;-46
2023/11/22 04:00:42;;;;;;;12.52;7.57;;;;;;;;;;5105341;28;20189;-50
2023/11/22 04:03:08;;;;;;;18.98;8.35;;;;;;;;;;5104904;28;20016;-46
2023/11/22 04:05:35;;;;;;;15.10;8.00;;;;;;;;;;5105071;28;20028;-49
2023/11/22 04:08:02;;;;;;;18.40;8.38;;;;;;;;;;5104561;28;20016;-53
2023/11/22 04:10:29;;;;;;;14.98;8.15;;;;;;;;;;5105173;28;20016;-50
2023/11/22 04:12:55;;;;;;;18.48;8.23;;;;;;;;;;5104610;28;20024;-49
2023/11/22 04:15:22;;;;;;;13.00;7.72;;;;;;;;;;5105006;28;20030;-53
2023/11/22 04:17:49;;;;;;;14.70;7.97;;;;;;;;;;5104592;28;20016;-50
2023/11/22 04:20:15;;;;;;;14.90;7.72;;;;;;;;;;5105159;28;20256;-54
2023/11/22 04:22:42;;;;;;;12.85;8.05;;;;;;;;;;5104944;28;20028;-56
2023/11/22 04:25:09;;;;;;;18.88;8.50;;;;;;;;;;5104912;28;20081;-49
2023/11/22 04:27:36;;;;;;;14.82;7.85;;;;;;;;;;5104324;28;20061;-50
2023/11/22 04:30:03;;;;;;;14.63;7.82;;;;;;;;;;5104450;28;20108;-46
2023/11/22 04:32:30;;;;;;;12.38;7.85;;;;;;;;;;5104297;28;20027;-49
2023/11/22 04:34:58;;;;;;;11.48;7.70;;;;;;;;;;5104653;28;20077;-48
2023/11/22 04:37:26;;;;;;;14.65;8.25;;;;;;;;;;5104314;28;20020;-49
2023/11/22 04:39:53;;;;;;;13.90;7.75;;;;;;;;;;5104524;28;20024;-52
2023/11/22 04:42:19;;;;;;;14.85;8.02;;;;;;;;;;5104187;28;20020;-48
2023/11/22 04:44:46;;;;;;;17.95;7.80;;;;;;;;;;5104619;28;20439;-48
2023/11/22 04:47:16;;;;;;;12.77;7.75;;;;;;;;;;5104034;28;20016;-52
2023/11/22 04:49:43;;;;;;;14.40;8.10;;;;;;;;;;5104357;28;20032;-51
2023/11/22 04:52:10;;;;;;;12.75;7.40;;;;;;;;;;5104170;28;20088;-48
2023/11/22 04:54:36;;;;;;;13.20;7.95;;;;;;;;;;5104526;28;20016;-54
2023/11/22 04:57:04;;;;;;;15.77;7.97;;;;;;;;;;5103973;28;20040;-50
2023/11/22 04:59:30;;;;;;;15.88;7.85;;;;;;;;;;5104542;28;20035;-51
2023/11/22 05:01:57;;;;;;;15.07;8.05;;;;;;;;;;5103977;28;20070;-50
2023/11/22 05:04:24;;;;;;;13.48;7.30;;;;;;;;;;5104232;28;20039;-47
2023/11/22 05:06:50;;;;;;;14.05;7.75;;;;;;;;;;5103861;28;20016;-51
2023/11/22 05:09:17;;;;;;;12.85;7.53;;;;;;;;;;5104058;28;20316;-48
2023/11/22 05:11:47;;;;;;;13.25;8.00;;;;;;;;;;5103898;28;20028;-47
2023/11/22 05:14:14;;;;;;;11.52;7.22;;;;;;;;;;5104179;28;20032;-55
2023/11/22 05:16:40;;;;;;;14.15;8.23;;;;;;;;;;5098403;28;20020;-49
2023/11/22 05:19:07;;;;;;;12.50;7.85;;;;;;;;;;5092828;28;20065;-46
2023/11/22 05:21:33;;;;;;;15.25;7.60;;;;;;;;;;5103751;28;20050;-47
2023/11/22 05:24:00;;;;;;;13.25;7.13;;;;;;;;;;5104093;28;20027;-48
2023/11/22 05:26:27;;;;;;;13.48;7.47;;;;;;;;;;5104541;28;20316;-48
2023/11/22 05:28:54;;;;;;;13.70;7.63;;;;;;;;;;5103850;28;20051;-48
2023/11/22 05:31:21;;;;;;;12.77;7.38;;;;;;;;;;5104562;28;20069;-48
2023/11/22 05:33:48;;;;;;;13.90;7.32;;;;;;;;;;5103930;28;20316;-50
2023/11/22 05:36:16;;;;;;;14.00;7.45;;;;;;;;;;5103672;28;20301;-50
2023/11/22 05:38:43;;;;;;;13.63;7.32;;;;;;;;;;5103663;28;20020;-50
2023/11/22 05:41:10;;;;;;;16.10;7.40;;;;;;;;;;5103744;28;20047;-47
2023/11/22 05:43:36;;;;;;;15.40;7.47;;;;;;;;;;5103327;28;20044;-46
2023/11/22 05:46:04;;;;;;;17.08;7.43;;;;;;;;;;5103740;28;20031;-48
2023/11/22 05:48:31;;;;;;;13.15;7.30;;;;;;;;;;5103339;28;20091;-47
2023/11/22 05:50:57;;;;;;;14.63;6.75;;;;;;;;;;5103876;28;20355;-47
2023/11/22 05:53:25;;;;;;;12.98;7.15;;;;;;;;;;5103923;28;20035;-47
2023/11/22 05:55:52;;;;;;;13.30;6.97;;;;;;;;;;5103925;28;20395;-46
2023/11/22 05:58:19;;;;;;;11.35;6.85;;;;;;;;;;5103460;28;20052;-45
2023/11/22 06:00:47;;;;;;;13.13;7.28;;;;;;;;;;5107750;28;20031;-51
2023/11/22 06:03:14;;;;;;;12.18;7.47;;;;;;;;;;5107096;28;20073;-52
2023/11/22 06:05:40;;;;;;;10.63;6.95;;;;;;;;;;5107502;28;20339;-49
2023/11/22 06:08:09;;;;;;;14.98;7.10;;;;;;;;;;5107404;28;20079;-53
2023/11/22 06:10:36;;;;;;;11.75;7.07;;;;;;;;;;5107631;28;20095;-49
2023/11/22 06:13:02;;;;;;;17.70;7.20;;;;;;;;;;5107260;28;20020;-50
2023/11/22 06:15:29;;;;;;;10.38;6.72;;;;;;;;;;5107861;28;20016;-53
2023/11/22 06:17:55;;;;;;;14.32;7.32;;;;;;;;;;5107269;28;20043;-50
2023/11/22 06:20:24;;;;;;;13.00;6.80;;;;;;;;;;5107238;28;20028;-50
2023/11/22 06:22:50;;;;;;;14.38;6.93;;;;;;;;;;5107820;28;20083;-52
2023/11/22 06:25:17;;;;;;;15.85;7.28;;;;;;;;;;5107095;28;20028;-48
2023/11/22 06:27:43;;;;;;;12.70;6.72;;;;;;;;;;5107012;28;20016;-50
2023/11/22 06:30:12;;;;;;;15.55;6.80;;;;;;;;;;5107091;28;20312;-46
2023/11/22 06:32:38;;;;;;;9.52;6.32;;;;;;;;;;5106607;28;20232;-51
2023/11/22 06:35:08;;;;;;;11.68;6.88;;;;;;;;;;5107179;28;20017;-48
2023/11/22 06:37:35;;;;;;;12.98;6.80;;;;;;;;;;5106790;28;20088;-46
2023/11/22 06:40:02;;;;;;;11.10;6.47;;;;;;;;;;5106938;28;20024;-46
2023/11/22 06:42:28;;;;;;;12.73;7.05;;;;;;;;;;5106442;28;20263;-49
2023/11/22 06:44:58;;;;;;;12.48;6.80;;;;;;;;;;5106688;28;20335;-53
2023/11/22 06:47:25;;;;;;;11.82;6.38;;;;;;;;;;5106758;28;20114;-49
2023/11/22 06:49:51;;;;;;;11.20;6.53;;;;;;;;;;5106622;28;20020;-50
2023/11/22 06:52:18;;;;;;;9.75;5.78;;;;;;;;;;5106607;28;20079;-50
2023/11/22 06:54:45;;;;;;;12.65;6.00;;;;;;;;;;5106873;28;20238;-51
2023/11/22 06:57:12;;;;;;;7.95;5.68;;;;;;;;;;5106404;28;20032;-48
2023/11/22 06:59:39;;;;;;;11.75;6.53;;;;;;;;;;5106171;28;20024;-47
2023/11/22 07:02:07;;;;;;;13.65;6.47;;;;;;;;;;5106206;28;20038;-47
2023/11/22 07:04:34;;;;;;;13.05;6.10;;;;;;;;;;5106426;28;20032;-48
2023/11/22 07:07:02;;;;;;;14.57;5.85;;;;;;;;;;5106240;28;20081;-51
2023/11/22 07:09:28;;;;;;;14.35;6.10;;;;;;;;;;5106193;28;20074;-47
2023/11/22 07:11:57;;;;;;;10.07;6.60;;;;;;;;;;5105761;28;20015;-46
2023/11/22 07:14:24;;;;;;;13.77;6.43;;;;;;;;;;5106102;28;20024;-49
2023/11/22 07:16:51;;;;;;;10.10;6.00;;;;;;;;;;5085570;28;20200;-52
2023/11/22 07:19:19;;;;;;;12.25;6.13;;;;;;;;;;5085490;28;20024;-52
2023/11/22 07:21:48;;;;;;;11.85;6.38;;;;;;;;;;5090059;28;20031;-50
2023/11/22 07:24:15;;;;;;;12.23;6.00;;;;;;;;;;5105946;28;20028;-50
2023/11/22 07:26:42;;;;;;;10.43;6.10;;;;;;;;;;5106156;28;20020;-47
2023/11/22 07:29:09;;;;;;;13.93;6.10;;;;;;;;;;5105909;28;20028;-50
2023/11/22 07:31:36;;;;;;;7.95;5.30;;;;;;;;;;5105496;28;20020;-48
2023/11/22 07:34:02;;;;;;;11.00;6.13;;;;;;;;;;5105423;28;20028;-51
2023/11/22 07:36:30;;;;;;;9.27;5.60;;;;;;;;;;5105817;28;20043;-47
2023/11/22 07:38:57;;;;;;;10.05;5.35;;;;;;;;;;5105586;28;20100;-55
2023/11/22 07:41:23;;;;;;;13.02;6.05;;;;;;;;;;5105224;28;20016;-54
2023/11/22 07:43:50;;;;;;;14.32;6.05;;;;;;;;;;5105221;28;20047;-52
2023/11/22 07:46:18;;;;;;;11.13;5.93;;;;;;;;;;5105247;28;20242;-48
2023/11/22 07:48:47;;;;;;;8.60;5.50;;;;;;;;;;5105242;28;20031;-44
2023/11/22 07:51:17;;;;;;;10.52;5.78;;;;;;;;;;5101498;28;20032;-48
2023/11/22 07:53:44;;;;;;;11.43;5.63;;;;;;;;;;5084720;28;20370;-50
2023/11/22 07:56:11;;;;;;;9.90;5.30;;;;;;;;;;5084955;28;20114;-44
2023/11/22 07:58:38;;;;;;;10.02;4.85;;;;;;;;;;5085100;28;20312;-46
2023/11/22 08:01:05;;;;;;;10.00;5.60;;;;;;;;;;5084829;28;20036;-49
2023/11/22 08:03:31;;;;;;;9.90;5.07;;;;;;;;;;5084729;28;20257;-51
2023/11/22 08:05:58;;;;;;;8.27;4.75;;;;;;;;;;5085072;28;20050;-50
2023/11/22 08:08:25;;;;;;;10.20;5.07;;;;;;;;;;5084838;28;20044;-48
2023/11/22 08:10:53;;;;;;;8.63;4.85;;;;;;;;;;5084349;28;20385;-46
2023/11/22 08:13:22;;;;;;;10.43;5.32;;;;;;;;;;5084609;28;20058;-46
2023/11/22 08:15:50;;;;;;;9.23;5.13;;;;;;;;;;5085024;28;20043;-51
2023/11/22 08:18:16;;;;;;;11.57;5.05;;;;;;;;;;5084576;28;20021;-47
2023/11/22 08:20:44;;;;;;;7.57;4.57;;;;;;;;;;5083880;28;20030;-47
2023/11/22 08:23:12;;;;;;;7.97;5.03;;;;;;;;;;5084232;28;20028;-52
2023/11/22 08:25:39;;;;;;;7.72;4.60;;;;;;;;;;5084822;28;20020;-52
2023/11/22 08:28:09;;;;;;;9.45;4.55;;;;;;;;;;5084474;28;20023;-44
2023/11/22 08:30:35;;;;;;;9.77;4.40;;;;;;;;;;5084220;28;20032;-46
2023/11/22 08:33:02;;;;;;;9.05;4.63;;;;;;;;;;5084390;28;20016;-47
2023/11/22 08:35:29;;;;;;;6.60;4.57;;;;;;;;;;5084469;28;20030;-46
2023/11/22 08:37:57;;;;;;;8.85;4.50;;;;;;;;;;5103615;28;20026;-54
2023/11/22 08:40:25;;;;;;;5.68;4.25;;;;;;;;;;5098888;28;20036;-48
2023/11/22 08:42:52;;;;;;;9.13;4.47;;;;;;;;;;5084249;28;20366;-49
2023/11/22 08:45:19;;;;;;;8.40;4.95;;;;;;;;;;5084153;28;20064;-49
2023/11/22 08:47:46;;;;;;;8.25;4.70;;;;;;;;;;5083707;28;20031;-51
2023/11/22 08:50:12;;;;;;;9.02;4.47;;;;;;;;;;5084742;28;20309;-46
2023/11/22 08:52:41;;;;;;;7.13;4.57;;;;;;;;;;5083831;28;20024;-48
2023/11/22 08:55:08;;;;;;;8.93;4.70;;;;;;;;;;5084388;28;20080;-53
2023/11/22 08:57:38;;;;;;;9.18;4.50;;;;;;;;;;5084296;28;20061;-48
2023/11/22 09:00:08;;;;;;;11.98;4.93;;;;;;;;;;5084226;28;20060;-46
2023/11/22 09:02:38;;;;;;;9.10;4.70;;;;;;;;;;5083666;28;20017;-52
2023/11/22 09:05:09;;;;;;;8.32;4.40;;;;;;;;;;5084124;28;20320;-53
2023/11/22 09:07:38;;;;;;;8.45;4.45;;;;;;;;;;5083921;28;20028;-50
2023/11/22 09:10:13;;;;;;;8.90;4.72;;;;;;;;;;5084502;28;20199;-47
2023/11/22 09:12:42;;;;;;;11.77;4.63;;;;;;;;;;5083866;28;20046;-49
2023/11/22 09:15:09;;;;;;;6.65;4.53;;;;;;;;;;5084634;28;20204;-46
2023/11/22 09:17:42;;;;;;;7.90;4.60;;;;;;;;;;5084000;28;20332;-48
2023/11/22 09:20:14;;;;;;;7.95;5.03;;;;;;;;;;5084251;28;20208;-47
2023/11/22 09:22:47;;;;;;;7.43;4.68;;;;;;;;;;5083977;28;20024;-49
2023/11/22 09:25:30;;;;;;;9.25;4.90;;;;;;;;;;5083963;28;20024;-46
2023/11/22 09:28:00;;;;;;;11.05;4.88;;;;;;;;;;5083711;28;20029;-46
2023/11/22 09:30:32;;;;;;;11.07;4.70;;;;;;;;;;5084188;28;20085;-48
2023/11/22 09:32:58;;;;;;;;;;;;;;;;;;5086001;28;20028;-45
2023/11/22 09:35:25;;;;;;;8.50;5.20;;;;;;;;;;5107317;28;19904;-46
2023/11/22 09:37:52;;;;;;;8.30;4.95;;;;;;;;;;5107890;28;20020;-48
2023/11/22 09:40:19;;;;;;;7.68;4.78;;;;;;;;;;5107918;28;20032;-45
2023/11/22 09:42:51;;;;;;;8.02;4.95;;;;;;;;;;5107818;28;20087;-53
2023/11/22 09:45:21;;;;;;;9.48;4.80;;;;;;;;;;5107757;28;20102;-46
2023/11/22 09:47:48;;;;;;;10.15;5.20;;;;;;;;;;5107883;28;20035;-52
2023/11/22 09:50:21;;;;;;;8.82;4.85;;;;;;;;;;5108103;28;20024;-49
2023/11/22 09:52:53;;;;;;;8.95;5.00;;;;;;;;;;5107613;28;20122;-52
2023/11/22 09:55:22;;;;;;;8.63;4.88;;;;;;;;;;5107707;28;20031;-46
2023/11/22 09:57:50;;;;;;;11.38;5.50;;;;;;;;;;5107210;28;20062;-46
2023/11/22 10:00:18;;;;;;;11.55;5.43;;;;;;;;;;5107558;28;20261;-50
2023/11/22 10:02:45;;;;;;;9.13;4.95;;;;;;;;;;5107500;28;20054;-50
2023/11/22 10:05:12;;;;;;;11.20;4.95;;;;;;;;;;5107666;28;20027;-52
2023/11/22 10:07:39;;;;;;;10.95;5.15;;;;;;;;;;5107019;28;20030;-50
2023/11/22 10:10:06;;;;;;;16.75;6.35;;;;;;;;;;5107668;28;20020;-49
2023/11/22 10:12:36;;;;;;;10.40;5.20;;;;;;;;;;5106942;28;20020;-48
2023/11/22 10:15:15;;;;;;;10.68;5.45;;;;;;;;;;5106870;28;20070;-49
2023/11/22 10:18:02;;;;;;;9.00;5.53;;;;;;;;;;5106840;28;20242;-46
2023/11/22 10:20:39;;;;;;;12.77;5.53;;;;;;;;;;5107629;28;20061;-50
2023/11/22 10:23:15;;;;;;;9.65;5.10;;;;;;;;;;5107197;28;20087;-55
2023/11/22 10:25:47;;;;;;;12.13;5.93;;;;;;;;;;5107176;28;20042;-57
2023/11/22 10:28:16;;;;;;;9.23;5.20;;;;;;;;;;5106657;28;20036;-53
2023/11/22 10:30:43;;;;;;;8.85;5.57;;;;;;;;;;5107160;28;20033;-49
2023/11/22 10:33:13;;;;;;;11.18;6.07;;;;;;;;;;5095208;28;20020;-53
2023/11/22 10:35:43;;;;;;;12.27;5.35;;;;;;;;;;5090792;28;20020;-47
2023/11/22 10:38:10;;;;;;;8.77;5.60;;;;;;;;;;5093366;28;20033;-47
2023/11/22 10:40:38;;;;;;;12.00;5.47;;;;;;;;;;5096151;28;20082;-46
2023/11/22 10:43:05;;;;;;;9.32;6.07;;;;;;;;;;5106224;28;20082;-49
2023/11/22 10:45:31;;;;;;;12.85;5.60;;;;;;;;;;5106058;28;20260;-47
2023/11/22 10:47:59;;;;;;;14.77;5.95;;;;;;;;;;5106373;28;20031;-48
2023/11/22 10:50:28;;;;;;;16.27;6.20;;;;;;;;;;5106907;28;20028;-50
2023/11/22 10:52:57;;;;;;;15.40;5.95;;;;;;;;;;5106497;28;20020;-53
2023/11/22 10:55:32;;;;;;;12.05;6.05;;;;;;;;;;5106940;28;20024;-60
2023/11/22 10:58:03;;;;;;;9.93;5.93;;;;;;;;;;5106256;28;20328;-50
2023/11/22 11:00:33;;;;;;;14.75;6.25;;;;;;;;;;5104106;28;20036;-49
2023/11/22 11:03:06;;;;;;;14.23;6.35;;;;;;;;;;5087483;28;20040;-52
2023/11/22 11:05:34;;;;;;;11.60;6.28;;;;;;;;;;5085928;28;20024;-47
2023/11/22 11:08:02;;;;;;;13.13;6.18;;;;;;;;;;5085864;28;20096;-55
2023/11/22 11:10:29;;;;;;;15.98;7.10;;;;;;;;;;5086230;28;20083;-49
2023/11/22 11:12:57;;;;;;;15.63;7.80;;;;;;;;;;5092776;28;20197;-49
2023/11/22 11:15:24;;;;;;;16.45;6.43;;;;;;;;;;5106456;28;20028;-49
2023/11/22 11:17:51;;;;;;;22.90;8.88;;;;;;;;;;5106054;28;20091;-53
2023/11/22 11:20:19;;;;;;;49.75;32.15;;;;;;;;;;5098616;28;20067;-47
2023/11/22 11:22:48;;;;;;;44.42;31.67;;;;;;;;;;5091773;28;20073;-52
2023/11/22 11:25:18;;;;;;;41.30;21.70;;;;;;;;;;5106249;28;20160;-51
2023/11/22 11:27:45;;;;;;;34.75;18.48;;;;;;;;;;5103572;28;20347;-48
2023/11/22 11:30:38;;;;;;;34.53;16.88;;;;;;;;;;5105645;28;20087;-50
2023/11/22 11:33:05;;;;;;;25.38;12.52;;;;;;;;;;5075273;28;20371;-49
2023/11/22 11:35:52;;;;;;;25.73;12.52;;;;;;;;;;5104209;28;20142;-47
2023/11/22 11:38:22;;;;;;;23.75;10.70;;;;;;;;;;5104769;28;20393;-49
2023/11/22 11:40:54;;;;;;;18.58;10.18;;;;;;;;;;5103219;28;20035;-56
2023/11/22 11:43:40;;;;;;;17.90;8.30;;;;;;;;;;5103149;28;20020;-49
2023/11/22 11:46:10;;;;;;;17.38;8.27;;;;;;;;;;5103367;28;20067;-51
2023/11/22 11:48:37;;;;;;;15.85;7.50;;;;;;;;;;5103194;28;20087;-45
2023/11/22 11:51:06;;;;;;;14.40;6.55;;;;;;;;;;5103499;28;20075;-50
2023/11/22 11:53:33;;;;;;;15.20;7.07;;;;;;;;;;5102638;28;20024;-48
2023/11/22 11:56:03;;;;;;;17.33;6.28;;;;;;;;;;5102723;28;20050;-47
2023/11/22 11:58:29;;;;;;;12.20;5.97;;;;;;;;;;5102844;28;20026;-49
2023/11/22 12:00:56;;;;;;;12.82;5.88;;;;;;;;;;5103211;28;20351;-52
2023/11/22 12:03:24;;;;;;;10.18;5.65;;;;;;;;;;5103124;28;20032;-48
2023/11/22 12:05:50;;;;;;;13.07;5.78;;;;;;;;;;5103637;28;20031;-47
2023/11/22 12:08:18;;;;;;;11.15;5.65;;;;;;;;;;5103601;28;20055;-49
2023/11/22 12:10:49;;;;;;;14.02;5.50;;;;;;;;;;5105740;28;20083;-49
2023/11/22 12:13:22;;;;;;;14.68;6.43;;;;;;;;;;5105231;28;20083;-46
2023/11/22 12:15:49;;;;;;;11.85;5.75;;;;;;;;;;5105615;28;20020;-49
2023/11/22 12:18:16;;;;;;;10.40;6.05;;;;;;;;;;5105187;28;20038;-47
2023/11/22 12:20:43;;;;;;;12.60;5.93;;;;;;;;;;5105290;28;20016;-54
2023/11/22 12:23:10;;;;;;;10.85;5.20;;;;;;;;;;5105228;28;20310;-49
2023/11/22 12:25:36;;;;;;;9.55;5.10;;;;;;;;;;5105269;28;20024;-47
2023/11/22 12:28:04;;;;;;;11.65;5.75;;;;;;;;;;5105193;28;20024;-52
2023/11/22 12:30:32;;;;;;;13.63;5.65;;;;;;;;;;5105789;28;20051;-51
2023/11/22 12:33:08;;;;;;;9.20;5.68;;;;;;;;;;5105014;28;20137;-47
2023/11/22 12:35:35;;;;;;;12.23;6.07;;;;;;;;;;5105664;28;20296;-45
2023/11/22 12:38:02;;;;;;;10.55;5.82;;;;;;;;;;5104954;28;20046;-48
2023/11/22 12:40:33;;;;;;;11.30;5.25;;;;;;;;;;5104809;28;20039;-53
2023/11/22 12:43:00;;;;;;;11.18;5.93;;;;;;;;;;5104590;28;20042;-49
2023/11/22 12:45:28;;;;;;;10.00;5.57;;;;;;;;;;5104125;28;20284;-51
2023/11/22 12:48:01;;;;;;;13.82;5.43;;;;;;;;;;5104365;28;20048;-48
2023/11/22 12:50:31;;;;;;;7.80;5.25;;;;;;;;;;5105107;28;20016;-52
2023/11/22 12:52:59;;;;;;;11.43;5.68;;;;;;;;;;5104472;28;20035;-51
2023/11/22 12:55:25;;;;;;;8.63;5.25;;;;;;;;;;5105303;28;20031;-53
2023/11/22 12:58:00;;;;;;;9.00;5.45;;;;;;;;;;5104617;28;20297;-51
2023/11/22 13:00:29;;;;;;;9.40;4.85;;;;;;;;;;5105137;28;20039;-51
2023/11/22 13:02:57;;;;;;;13.20;5.15;;;;;;;;;;5104557;28;20027;-50
2023/11/22 13:05:25;;;;;;;8.50;4.90;;;;;;;;;;5104839;28;20300;-52
2023/11/22 13:07:52;;;;;;;10.25;5.85;;;;;;;;;;5105210;28;20048;-51
2023/11/22 13:10:24;;;;;;;9.02;5.32;;;;;;;;;;5109240;28;20065;-51
2023/11/22 13:12:53;;;;;;;11.07;5.20;;;;;;;;;;5108523;28;20024;-56
2023/11/22 13:15:20;;;;;;;11.77;5.28;;;;;;;;;;5108729;28;20083;-52
2023/11/22 13:17:47;;;;;;;12.32;5.35;;;;;;;;;;5108120;28;20312;-51
2023/11/22 13:20:15;;;;;;;9.85;5.43;;;;;;;;;;5108401;28;20283;-48
2023/11/22 13:22:42;;;;;;;8.52;5.35;;;;;;;;;;5108368;28;20116;-49
2023/11/22 13:25:17;;;;;;;15.88;5.47;;;;;;;;;;5108798;28;20020;-48
2023/11/22 13:27:44;;;;;;;9.88;5.40;;;;;;;;;;5108243;28;20016;-48
2023/11/22 13:30:11;;;;;;;11.35;5.53;;;;;;;;;;5108432;28;20024;-49
2023/11/22 13:32:41;;;;;;;10.82;5.22;;;;;;;;;;5108750;28;20284;-51
2023/11/22 13:35:14;;;;;;;11.10;5.13;;;;;;;;;;5108957;28;20027;-49
2023/11/22 13:37:44;;;;;;;9.60;5.35;;;;;;;;;;5108454;28;20103;-50
2023/11/22 13:40:15;;;;;;;11.82;5.50;;;;;;;;;;5108146;28;20027;-50
2023/11/22 13:42:43;;;;;;;10.70;5.85;;;;;;;;;;5107733;28;20032;-50
2023/11/22 13:45:14;;;;;;;9.80;5.68;;;;;;;;;;5107898;28;20099;-49
2023/11/22 13:47:43;;;;;;;10.48;6.00;;;;;;;;;;5107927;28;20074;-52
2023/11/22 13:50:10;;;;;;;11.32;5.50;;;;;;;;;;5108241;28;20016;-48
2023/11/22 13:52:37;;;;;;;8.95;5.15;;;;;;;;;;5108072;28;20020;-50
2023/11/22 13:55:08;;;;;;;9.57;5.65;;;;;;;;;;5108055;28;20012;-48
2023/11/22 13:57:35;;;;;;;9.45;4.90;;;;;;;;;;5108053;28;20035;-52
2023/11/22 14:00:02;;;;;;;10.15;5.57;;;;;;;;;;5108162;28;20079;-50
2023/11/22 14:02:29;;;;;;;11.52;5.32;;;;;;;;;;5107928;28;20024;-53
2023/11/22 14:04:55;;;;;;;12.50;5.75;;;;;;;;;;5107655;28;20019;-49
2023/11/22 14:07:22;;;;;;;10.40;6.00;;;;;;;;;;5107924;28;20035;-52
2023/11/22 14:09:50;;;;;;;12.80;6.50;;;;;;;;;;5107706;28;20012;-48
2023/11/22 14:12:18;;;;;;;13.10;5.85;;;;;;;;;;5107579;28;20035;-47
2023/11/22 14:14:45;;;;;;;11.98;5.90;;;;;;;;;;5107278;28;20024;-50
2023/11/22 14:17:13;;;;;;;11.80;6.05;;;;;;;;;;5107374;28;20264;-46
2023/11/22 14:19:40;;;;;;;10.98;5.63;;;;;;;;;;5106671;28;20242;-53
2023/11/22 14:22:08;;;;;;;10.27;6.03;;;;;;;;;;5106912;28;20020;-51
2023/11/22 14:24:36;;;;;;;8.48;5.38;;;;;;;;;;5106937;28;20190;-53
2023/11/22 14:27:04;;;;;;;9.90;6.15;;;;;;;;;;5107593;28;20051;-56
2023/11/22 14:29:31;;;;;;;10.45;6.00;;;;;;;;;;5107383;28;20028;-55
2023/11/22 14:31:57;;;;;;;10.25;6.00;;;;;;;;;;5107155;28;20020;-57
2023/11/22 14:34:24;;;;;;;10.82;5.85;;;;;;;;;;5107648;28;20047;-47
2023/11/22 14:36:51;;;;;;;11.98;6.20;;;;;;;;;;5107004;28;20069;-49